createdAt,value
2022-08-29T00:01:11.610Z,17.60
2022-08-29T00:03:39.637Z,17.70
2022-08-29T00:06:07.984Z,17.50
2022-08-29T00:08:35.316Z,17.60
2022-08-29T00:11:02.536Z,17.60
2022-08-29T00:13:29.936Z,17.80
2022-08-29T00:15:56.790Z,17.60
2022-08-29T00:18:23.782Z,17.90
2022-08-29T00:20:51.324Z,17.50
2022-08-29T00:23:18.391Z,17.50
2022-08-29T00:25:45.938Z,17.50
2022-08-29T00:28:13.272Z,17.50
2022-08-29T00:30:41.686Z,17.60
2022-08-29T00:33:09.006Z,17.50
2022-08-29T00:35:40.637Z,18.00
2022-08-29T00:38:10.803Z,17.50
2022-08-29T00:40:51.454Z,17.50
2022-08-29T00:43:28.843Z,17.50
2022-08-29T00:46:46.561Z,18.00
2022-08-29T00:49:24.962Z,17.40
2022-08-29T00:51:53.566Z,17.40
2022-08-29T00:54:22.603Z,17.40
2022-08-29T00:56:53.313Z,17.30
2022-08-29T00:59:40.988Z,17.70
2022-08-29T01:02:11.245Z,17.30
2022-08-29T01:04:39.558Z,17.60
2022-08-29T01:07:09.196Z,17.20
2022-08-29T01:09:42.908Z,17.10
2022-08-29T01:12:16.665Z,17.00
2022-08-29T01:14:50.261Z,17.00
2022-08-29T01:17:33.744Z,16.90
2022-08-29T01:20:20.059Z,16.90
2022-08-29T01:23:39.092Z,16.80
2022-08-29T01:26:07.362Z,16.80
2022-08-29T01:28:45.820Z,16.70
2022-08-29T01:31:37.261Z,16.70
2022-08-29T01:34:12.046Z,16.60
2022-08-29T01:37:03.208Z,16.60
2022-08-29T01:39:41.540Z,17.00
2022-08-29T01:42:24.013Z,16.90
2022-08-29T01:44:58.771Z,16.50
2022-08-29T01:47:31.807Z,16.60
2022-08-29T01:49:58.659Z,16.50
2022-08-29T01:52:25.490Z,17.00
2022-08-29T01:54:52.362Z,16.40
2022-08-29T01:57:19.469Z,16.90
2022-08-29T01:59:47.505Z,16.50
2022-08-29T02:02:26.463Z,16.40
2022-08-29T02:04:56.311Z,16.30
2022-08-29T02:07:25.201Z,16.60
2022-08-29T02:09:53.173Z,16.20
2022-08-29T02:12:20.887Z,16.20
2022-08-29T02:14:50.603Z,16.20
2022-08-29T02:17:18.015Z,16.20
2022-08-29T02:19:45.965Z,16.30
2022-08-29T02:22:13.806Z,16.20
2022-08-29T02:24:42.019Z,16.20
2022-08-29T02:27:10.332Z,16.20
2022-08-29T02:29:38.491Z,16.40
2022-08-29T02:32:12.950Z,16.20
2022-08-29T02:34:44.750Z,16.80
2022-08-29T02:37:15.895Z,16.20
2022-08-29T02:39:42.812Z,16.10
2022-08-29T02:42:09.647Z,16.50
2022-08-29T02:44:37.933Z,16.30
2022-08-29T02:47:07.557Z,16.00
2022-08-29T02:49:34.603Z,16.00
2022-08-29T02:52:04.539Z,15.90
2022-08-29T02:54:31.313Z,16.00
2022-08-29T02:56:58.109Z,15.90
2022-08-29T02:59:24.900Z,15.90
2022-08-29T03:01:53.551Z,15.80
2022-08-29T03:04:20.496Z,15.80
2022-08-29T03:06:47.360Z,15.90
2022-08-29T03:09:14.218Z,16.20
2022-08-29T03:11:41.018Z,15.80
2022-08-29T03:14:08.280Z,15.80
2022-08-29T03:16:35.170Z,16.10
2022-08-29T03:19:02.263Z,15.80
2022-08-29T03:21:29.057Z,15.80
2022-08-29T03:23:56.505Z,16.50
2022-08-29T03:26:25.678Z,15.90
2022-08-29T03:28:52.970Z,15.80
2022-08-29T03:31:21.474Z,15.80
2022-08-29T03:33:48.805Z,15.80
2022-08-29T03:36:15.671Z,15.80
2022-08-29T03:38:46.457Z,15.90
2022-08-29T03:41:22.700Z,15.80
2022-08-29T03:43:49.925Z,15.80
2022-08-29T03:46:16.815Z,15.90
2022-08-29T03:48:43.843Z,15.80
2022-08-29T03:51:10.797Z,15.70
2022-08-29T03:53:37.573Z,15.70
2022-08-29T03:56:06.128Z,15.70
2022-08-29T03:58:34.257Z,15.60
2022-08-29T04:01:01.878Z,15.70
2022-08-29T04:03:31.478Z,15.50
2022-08-29T04:05:59.194Z,15.40
2022-08-29T04:08:28.164Z,15.40
2022-08-29T04:10:55.065Z,15.40
2022-08-29T04:13:21.953Z,15.40
2022-08-29T04:15:48.762Z,15.30
2022-08-29T04:18:15.917Z,15.30
2022-08-29T04:20:48.517Z,15.70
2022-08-29T04:23:15.797Z,15.20
2022-08-29T04:25:44.154Z,15.20
2022-08-29T04:28:14.671Z,15.30
2022-08-29T04:30:51.852Z,15.30
2022-08-29T04:33:23.495Z,15.20
2022-08-29T04:35:52.653Z,15.30
2022-08-29T04:38:20.510Z,15.80
2022-08-29T04:40:47.748Z,15.20
2022-08-29T04:43:14.866Z,15.30
2022-08-29T04:45:42.333Z,15.50
2022-08-29T04:48:10.980Z,15.00
2022-08-29T04:50:38.255Z,15.10
2022-08-29T04:53:05.199Z,15.10
2022-08-29T04:55:33.014Z,15.00
2022-08-29T04:58:00.220Z,15.00
2022-08-29T05:00:30.314Z,15.00
2022-08-29T05:02:58.293Z,15.00
2022-08-29T05:05:25.694Z,15.00
2022-08-29T05:07:52.511Z,14.90
2022-08-29T05:10:24.763Z,15.00
2022-08-29T05:12:51.605Z,15.00
2022-08-29T05:15:18.674Z,14.70
2022-08-29T05:17:45.910Z,15.00
2022-08-29T05:20:13.494Z,15.00
2022-08-29T05:22:42.137Z,15.00
2022-08-29T05:25:17.317Z,15.10
2022-08-29T05:27:45.731Z,15.10
2022-08-29T05:30:12.638Z,15.10
2022-08-29T05:32:39.456Z,15.20
2022-08-29T05:35:06.605Z,15.20
2022-08-29T05:37:33.787Z,15.30
2022-08-29T05:40:00.703Z,15.30
2022-08-29T05:42:27.615Z,15.40
2022-08-29T05:44:54.465Z,15.50
2022-08-29T05:47:21.569Z,15.60
2022-08-29T05:49:50.068Z,15.80
2022-08-29T05:52:20.848Z,15.90
2022-08-29T05:54:48.391Z,16.00
2022-08-29T05:57:19.933Z,16.10
2022-08-29T05:59:52.805Z,16.30
2022-08-29T06:02:22.485Z,16.50
2022-08-29T06:04:49.939Z,16.70
2022-08-29T06:07:16.721Z,16.90
2022-08-29T06:09:44.809Z,17.00
2022-08-29T06:12:15.419Z,17.30
2022-08-29T06:14:50.585Z,17.30
2022-08-29T06:17:18.386Z,17.70
2022-08-29T06:19:45.666Z,17.60
2022-08-29T06:22:12.898Z,17.70
2022-08-29T06:24:39.981Z,17.90
2022-08-29T06:27:12.911Z,18.20
2022-08-29T06:29:43.289Z,18.00
2022-08-29T06:32:12.379Z,18.10
2022-08-29T06:34:39.530Z,18.20
2022-08-29T06:37:06.438Z,18.20
2022-08-29T06:39:33.560Z,18.40
2022-08-29T06:42:00.503Z,18.30
2022-08-29T06:44:30.712Z,18.50
2022-08-29T06:46:58.722Z,18.50
2022-08-29T06:49:26.180Z,18.70
2022-08-29T06:51:57.661Z,18.80
2022-08-29T06:54:27.879Z,18.90
2022-08-29T06:56:56.775Z,19.20
2022-08-29T06:59:23.627Z,19.20
2022-08-29T07:01:50.650Z,19.40
2022-08-29T07:04:20.990Z,19.60
2022-08-29T07:06:48.921Z,19.90
2022-08-29T07:09:16.374Z,20.20
2022-08-29T07:11:43.584Z,20.60
2022-08-29T07:14:12.025Z,20.90
2022-08-29T07:16:40.215Z,21.30
2022-08-29T07:19:08.747Z,21.70
2022-08-29T07:21:36.856Z,22.10
2022-08-29T07:24:04.976Z,22.50
2022-08-29T07:26:36.986Z,23.00
2022-08-29T07:29:10.081Z,23.40
2022-08-29T07:31:39.341Z,23.80
2022-08-29T07:34:07.819Z,24.10
2022-08-29T07:36:35.512Z,24.50
2022-08-29T07:39:08.714Z,24.80
2022-08-29T07:41:37.844Z,25.00
2022-08-29T07:44:05.465Z,25.30
2022-08-29T07:46:32.477Z,25.50
2022-08-29T07:49:00.535Z,25.70
2022-08-29T07:51:29.099Z,26.00
2022-08-29T07:53:57.410Z,26.20
2022-08-29T07:56:28.609Z,26.50
2022-08-29T07:58:57.962Z,26.80
2022-08-29T08:01:25.878Z,27.00
2022-08-29T08:03:54.203Z,27.20
2022-08-29T08:06:27.353Z,27.40
2022-08-29T08:08:59.656Z,27.50
2022-08-29T08:11:27.551Z,27.70
2022-08-29T08:13:59.924Z,27.80
2022-08-29T08:16:29.457Z,27.90
2022-08-29T08:18:57.811Z,28.00
2022-08-29T08:21:26.353Z,28.10
2022-08-29T08:23:55.657Z,28.20
2022-08-29T08:26:23.465Z,28.30
2022-08-29T08:28:51.788Z,28.40
2022-08-29T08:31:20.686Z,28.40
2022-08-29T08:33:48.017Z,28.50
2022-08-29T08:36:17.695Z,28.50
2022-08-29T08:38:48.792Z,28.40
2022-08-29T08:41:27.606Z,28.40
2022-08-29T08:44:07.054Z,28.40
2022-08-29T08:46:38.795Z,28.30
2022-08-29T08:49:16.913Z,28.30
2022-08-29T08:51:53.076Z,28.30
2022-08-29T08:54:33.186Z,28.40
2022-08-29T08:57:12.622Z,28.50
2022-08-29T08:59:44.456Z,28.70
2022-08-29T09:02:54.512Z,28.90
2022-08-29T09:06:12.260Z,29.10
2022-08-29T09:09:10.229Z,29.30
2022-08-29T09:12:32.542Z,29.50
2022-08-29T09:15:22.292Z,29.80
2022-08-29T09:18:23.857Z,30.10
2022-08-29T09:20:56.918Z,30.40
2022-08-29T09:23:54.355Z,30.70
2022-08-29T09:26:24.155Z,30.90
2022-08-29T09:28:51.273Z,31.00
2022-08-29T09:31:22.845Z,30.90
2022-08-29T09:34:02.480Z,30.70
2022-08-29T09:36:48.434Z,30.50
2022-08-29T09:39:28.480Z,30.30
2022-08-29T09:42:14.001Z,30.30
2022-08-29T09:44:58.449Z,30.40
2022-08-29T09:47:29.813Z,30.60
2022-08-29T09:50:04.985Z,30.70
2022-08-29T09:52:32.189Z,30.70
2022-08-29T09:55:24.495Z,30.70
2022-08-29T09:58:07.789Z,30.70
2022-08-29T10:00:40.425Z,30.80
2022-08-29T10:03:18.867Z,30.90
2022-08-29T10:05:47.753Z,30.80
2022-08-29T10:09:10.908Z,30.80
2022-08-29T10:12:12.630Z,30.70
2022-08-29T10:15:02.271Z,30.60
2022-08-29T10:18:05.686Z,30.40
2022-08-29T10:21:18.326Z,30.20
2022-08-29T10:23:59.828Z,30.10
2022-08-29T10:27:04.409Z,30.20
2022-08-29T10:29:39.973Z,30.20
2022-08-29T10:32:39.580Z,30.10
2022-08-29T10:35:32.842Z,29.90
2022-08-29T10:38:10.324Z,29.70
2022-08-29T10:40:58.480Z,29.70
2022-08-29T10:43:40.193Z,29.60
2022-08-29T10:46:43.870Z,29.70
2022-08-29T10:49:36.514Z,29.70
2022-08-29T10:52:38.105Z,29.70
2022-08-29T10:55:18.922Z,29.90
2022-08-29T10:58:26.359Z,30.00
2022-08-29T11:01:09.412Z,30.10
2022-08-29T11:03:48.598Z,30.30
2022-08-29T11:06:26.707Z,30.50
2022-08-29T11:09:25.395Z,30.70
2022-08-29T11:12:23.909Z,30.90
2022-08-29T11:15:09.228Z,31.10
2022-08-29T11:17:40.935Z,31.40
2022-08-29T11:20:19.541Z,31.70
2022-08-29T11:23:27.571Z,32.00
2022-08-29T11:25:58.109Z,32.30
2022-08-29T11:28:52.583Z,32.50
2022-08-29T11:31:32.435Z,32.50
2022-08-29T11:34:39.331Z,32.50
2022-08-29T11:37:23.905Z,32.50
2022-08-29T11:40:48.807Z,32.50
2022-08-29T11:43:44.557Z,32.40
2022-08-29T11:46:53.461Z,32.40
2022-08-29T11:49:36.997Z,32.40
2022-08-29T11:52:22.318Z,32.30
2022-08-29T11:54:59.469Z,32.40
2022-08-29T11:57:45.695Z,32.20
2022-08-29T12:00:55.789Z,32.00
2022-08-29T12:03:44.861Z,31.80
2022-08-29T12:06:32.883Z,31.60
2022-08-29T12:09:14.616Z,31.50
2022-08-29T12:12:10.341Z,31.30
2022-08-29T12:14:49.195Z,31.20
2022-08-29T12:17:51.182Z,31.10
2022-08-29T12:20:35.563Z,31.00
2022-08-29T12:23:15.778Z,30.80
2022-08-29T12:25:55.218Z,30.60
2022-08-29T12:28:59.115Z,30.50
2022-08-29T12:32:32.594Z,30.40
2022-08-29T12:35:32.889Z,30.30
2022-08-29T12:38:42.032Z,30.20
2022-08-29T12:41:27.493Z,30.00
2022-08-29T12:44:01.273Z,29.90
2022-08-29T12:46:34.092Z,29.80
2022-08-29T12:49:27.520Z,29.70
2022-08-29T12:52:03.162Z,29.60
2022-08-29T12:54:46.036Z,29.60
2022-08-29T12:57:34.609Z,29.50
2022-08-29T13:00:08.338Z,29.50
2022-08-29T13:02:38.152Z,29.30
2022-08-29T13:05:23.407Z,29.30
2022-08-29T13:08:02.344Z,29.10
2022-08-29T13:10:30.137Z,29.00
2022-08-29T13:13:13.873Z,28.90
2022-08-29T13:15:41.460Z,28.70
2022-08-29T13:18:16.391Z,28.70
2022-08-29T13:21:03.176Z,28.50
2022-08-29T13:24:11.277Z,28.50
2022-08-29T13:27:06.459Z,28.50
2022-08-29T13:29:37.730Z,28.50
2022-08-29T13:32:26.878Z,28.50
2022-08-29T13:35:06.227Z,28.40
2022-08-29T13:37:39.082Z,28.40
2022-08-29T13:40:31.884Z,28.40
2022-08-29T13:43:01.140Z,28.40
2022-08-29T13:45:28.810Z,28.40
2022-08-29T13:48:15.550Z,28.40
2022-08-29T13:50:42.351Z,28.30
2022-08-29T13:53:09.311Z,28.30
2022-08-29T13:55:36.626Z,28.30
2022-08-29T13:58:04.464Z,28.20
2022-08-29T14:00:35.384Z,28.30
2022-08-29T14:03:06.335Z,28.10
2022-08-29T14:05:35.209Z,28.00
2022-08-29T14:08:05.524Z,28.00
2022-08-29T14:10:32.537Z,28.00
2022-08-29T14:12:59.600Z,28.30
2022-08-29T14:15:26.674Z,27.90
2022-08-29T14:17:56.886Z,28.30
2022-08-29T14:20:42.724Z,27.90
2022-08-29T14:23:09.669Z,27.80
2022-08-29T14:25:36.456Z,27.80
2022-08-29T14:28:04.057Z,27.80
2022-08-29T14:30:31.037Z,27.80
2022-08-29T14:32:57.816Z,27.80
2022-08-29T14:35:26.442Z,27.70
2022-08-29T14:38:00.195Z,27.70
2022-08-29T14:40:28.797Z,27.60
2022-08-29T14:42:57.222Z,27.50
2022-08-29T14:45:24.360Z,27.50
2022-08-29T14:47:51.522Z,27.50
2022-08-29T14:50:18.910Z,27.50
2022-08-29T14:52:46.065Z,27.40
2022-08-29T14:55:14.153Z,27.40
2022-08-29T14:57:49.560Z,27.40
2022-08-29T15:00:27.937Z,27.40
2022-08-29T15:02:55.276Z,27.40
2022-08-29T15:05:22.496Z,27.50
2022-08-29T15:07:49.986Z,27.50
2022-08-29T15:13:17.502Z,27.50
2022-08-29T15:15:44.429Z,27.40
2022-08-29T15:19:31.595Z,27.40
2022-08-29T15:21:25.938Z,27.40
2022-08-29T15:23:53.611Z,27.30
2022-08-29T15:26:24.142Z,27.20
2022-08-29T15:28:51.134Z,27.10
2022-08-29T15:31:18.067Z,26.90
2022-08-29T15:33:44.907Z,27.00
2022-08-29T15:36:11.747Z,26.90
2022-08-29T15:38:38.734Z,26.90
2022-08-29T15:41:05.749Z,26.90
2022-08-29T15:43:32.544Z,26.80
2022-08-29T15:46:02.832Z,26.70
2022-08-29T15:48:30.940Z,26.70
2022-08-29T15:51:04.449Z,26.70
2022-08-29T15:53:31.357Z,26.60
2022-08-29T15:55:58.562Z,26.60
2022-08-29T15:58:25.396Z,26.60
2022-08-29T16:00:56.200Z,26.60
2022-08-29T16:03:23.132Z,26.50
2022-08-29T16:05:49.955Z,26.40
2022-08-29T16:08:17.633Z,26.50
2022-08-29T16:10:46.427Z,26.60
2022-08-29T16:13:13.248Z,26.50
2022-08-29T16:15:40.465Z,26.40
2022-08-29T16:18:07.532Z,26.40
2022-08-29T16:20:37.987Z,26.40
2022-08-29T16:23:05.957Z,26.40
2022-08-29T16:25:33.938Z,26.40
2022-08-29T16:28:03.509Z,26.30
2022-08-29T16:30:33.639Z,26.30
2022-08-29T16:33:01.634Z,26.40
2022-08-29T16:35:28.468Z,26.30
2022-08-29T16:38:02.469Z,26.20
2022-08-29T16:40:34.232Z,26.20
2022-08-29T16:43:03.954Z,26.20
2022-08-29T16:45:32.598Z,26.20
2022-08-29T16:47:59.837Z,26.20
2022-08-29T16:50:28.129Z,26.20
2022-08-29T16:52:55.683Z,26.20
2022-08-29T16:55:22.672Z,26.20
2022-08-29T16:58:08.254Z,26.10
2022-08-29T17:00:35.191Z,26.10
2022-08-29T17:03:02.700Z,26.00
2022-08-29T17:05:30.537Z,26.00
2022-08-29T17:07:57.383Z,25.90
2022-08-29T17:10:24.126Z,25.90
2022-08-29T17:12:51.030Z,25.80
2022-08-29T17:15:17.813Z,25.70
2022-08-29T17:17:45.210Z,25.70
2022-08-29T17:20:12.895Z,25.60
2022-08-29T17:22:39.808Z,25.60
2022-08-29T17:25:07.682Z,25.50
2022-08-29T17:27:34.489Z,25.50
2022-08-29T17:30:03.788Z,25.20
2022-08-29T17:32:30.975Z,25.40
2022-08-29T17:34:57.744Z,25.30
2022-08-29T17:37:24.540Z,25.30
2022-08-29T17:39:51.390Z,25.20
2022-08-29T17:42:18.198Z,25.20
2022-08-29T17:44:46.853Z,25.00
2022-08-29T17:47:13.694Z,25.00
2022-08-29T17:49:40.602Z,24.90
2022-08-29T17:52:07.703Z,24.90
2022-08-29T17:54:34.862Z,24.90
2022-08-29T17:57:02.090Z,24.80
2022-08-29T17:59:34.476Z,24.80
2022-08-29T18:02:02.705Z,24.70
2022-08-29T18:04:29.741Z,24.70
2022-08-29T18:06:57.811Z,24.60
2022-08-29T18:09:25.517Z,24.50
2022-08-29T18:11:54.362Z,24.40
2022-08-29T18:14:24.077Z,24.30
2022-08-29T18:17:05.838Z,24.30
2022-08-29T18:19:34.902Z,24.30
2022-08-29T18:22:02.324Z,24.20
2022-08-29T18:24:29.179Z,24.20
2022-08-29T18:26:56.036Z,24.10
2022-08-29T18:29:32.682Z,24.10
2022-08-29T18:32:00.876Z,24.00
2022-08-29T18:34:30.489Z,24.00
2022-08-29T18:37:23.230Z,23.90
2022-08-29T18:39:50.832Z,23.80
2022-08-29T18:42:40.082Z,23.70
2022-08-29T18:45:09.178Z,23.70
2022-08-29T18:47:37.165Z,23.60
2022-08-29T18:50:26.017Z,23.60
2022-08-29T18:53:04.443Z,23.50
2022-08-29T18:55:56.316Z,23.40
2022-08-29T18:58:33.500Z,23.30
2022-08-29T19:01:12.124Z,23.30
2022-08-29T19:03:40.240Z,23.20
2022-08-29T19:06:07.464Z,23.20
2022-08-29T19:08:38.067Z,23.20
2022-08-29T19:11:13.797Z,23.20
2022-08-29T19:13:41.577Z,23.10
2022-08-29T19:16:17.433Z,23.10
2022-08-29T19:18:48.521Z,23.00
2022-08-29T19:21:16.247Z,23.00
2022-08-29T19:23:51.957Z,23.00
2022-08-29T19:26:52.531Z,22.90
2022-08-29T19:29:19.682Z,22.90
2022-08-29T19:31:46.655Z,22.90
2022-08-29T19:34:13.842Z,22.80
2022-08-29T19:36:42.916Z,22.80
2022-08-29T19:39:13.934Z,22.70
2022-08-29T19:41:40.681Z,22.70
2022-08-29T19:44:09.085Z,22.60
2022-08-29T19:46:41.205Z,22.60
2022-08-29T19:49:20.268Z,22.50
2022-08-29T19:52:00.439Z,22.50
2022-08-29T19:54:29.102Z,22.50
2022-08-29T19:57:24.557Z,22.40
2022-08-29T19:59:57.435Z,22.40
2022-08-29T20:02:26.930Z,22.40
2022-08-29T20:04:54.395Z,22.40
2022-08-29T20:07:21.425Z,22.40
2022-08-29T20:09:49.188Z,22.30
2022-08-29T20:12:16.259Z,22.40
2022-08-29T20:14:43.355Z,22.40
2022-08-29T20:17:11.651Z,22.30
2022-08-29T20:19:39.622Z,22.30
2022-08-29T20:22:07.154Z,22.30
2022-08-29T20:24:34.871Z,22.30
2022-08-29T20:27:03.442Z,22.30
2022-08-29T20:29:31.919Z,22.30
2022-08-29T20:32:17.711Z,22.20
2022-08-29T20:34:45.282Z,22.20
2022-08-29T20:37:14.115Z,22.20
2022-08-29T20:39:46.405Z,22.20
2022-08-29T20:42:21.338Z,22.20
2022-08-29T20:44:48.519Z,22.20
2022-08-29T20:47:19.710Z,22.20
2022-08-29T20:49:49.151Z,22.20
2022-08-29T20:52:19.808Z,22.20
2022-08-29T20:54:47.868Z,22.10
2022-08-29T20:57:15.104Z,22.10
2022-08-29T20:59:42.971Z,22.50
2022-08-29T21:02:10.932Z,22.10
2022-08-29T21:04:57.440Z,22.10
2022-08-29T21:07:25.477Z,22.00
2022-08-29T21:10:07.988Z,22.00
2022-08-29T21:12:37.822Z,22.00
2022-08-29T21:15:05.900Z,22.00
2022-08-29T21:17:36.332Z,22.00
2022-08-29T21:20:04.294Z,22.00
2022-08-29T21:22:34.895Z,22.00
2022-08-29T21:25:02.796Z,22.00
2022-08-29T21:27:30.838Z,21.90
2022-08-29T21:29:58.667Z,21.90
2022-08-29T21:32:29.232Z,21.90
2022-08-29T21:34:56.068Z,21.90
2022-08-29T21:37:24.450Z,21.90
2022-08-29T21:39:51.266Z,22.00
2022-08-29T21:42:18.375Z,21.90
2022-08-29T21:44:45.188Z,21.90
2022-08-29T21:47:14.824Z,21.80
2022-08-29T21:49:44.437Z,21.90
2022-08-29T21:52:11.363Z,21.90
2022-08-29T21:54:38.154Z,21.90
2022-08-29T21:57:05.128Z,21.80
2022-08-29T21:59:32.585Z,21.80
2022-08-29T22:01:59.433Z,21.80
2022-08-29T22:04:28.430Z,21.80
2022-08-29T22:06:57.478Z,21.70
2022-08-29T22:09:25.548Z,21.70
2022-08-29T22:11:52.304Z,21.60
2022-08-29T22:14:19.121Z,21.60
2022-08-29T22:16:45.963Z,21.60
2022-08-29T22:19:16.670Z,21.50
2022-08-29T22:21:51.749Z,21.50
2022-08-29T22:24:18.924Z,21.50
2022-08-29T22:26:46.627Z,21.50
2022-08-29T22:29:15.884Z,21.40
2022-08-29T22:31:44.718Z,21.40
2022-08-29T22:34:14.744Z,21.40
2022-08-29T22:36:41.872Z,21.40
2022-08-29T22:39:10.166Z,21.40
2022-08-29T22:41:37.602Z,21.40
2022-08-29T22:46:54.139Z,21.40
2022-08-29T22:49:21.207Z,21.40
2022-08-29T22:51:48.928Z,21.40
2022-08-29T22:54:34.399Z,21.40
2022-08-29T22:57:04.395Z,21.40
2022-08-29T22:59:32.386Z,21.40
2022-08-29T23:02:01.277Z,21.40
2022-08-29T23:04:29.941Z,21.40
2022-08-29T23:06:57.423Z,21.40
2022-08-29T23:09:24.522Z,21.40
2022-08-29T23:11:51.819Z,21.40
2022-08-29T23:14:20.810Z,21.30
2022-08-29T23:16:48.604Z,21.30
2022-08-29T23:19:16.048Z,21.30
2022-08-29T23:21:43.695Z,21.30
2022-08-29T23:24:10.471Z,21.20
2022-08-29T23:26:37.384Z,21.40
2022-08-29T23:29:05.147Z,21.10
2022-08-29T23:31:32.201Z,21.10
2022-08-29T23:33:58.994Z,21.10
2022-08-29T23:36:25.835Z,21.00
2022-08-29T23:38:52.847Z,21.00
2022-08-29T23:41:20.019Z,21.00
2022-08-29T23:43:46.774Z,20.90
2022-08-29T23:46:13.635Z,20.80
2022-08-29T23:48:40.656Z,20.80
2022-08-29T23:51:10.761Z,20.70
2022-08-29T23:53:38.441Z,20.70
2022-08-29T23:56:17.116Z,20.60
2022-08-29T23:58:43.872Z,20.50
